sensor_id;sensor_type;location;lat;lon;timestamp;P1;P2;P0
66622;PMS5003;53493;50.888;20.650;2022-07-04T00:07:04;4;4;2
66622;PMS5003;53493;50.888;20.650;2022-07-04T00:14:17;4;4;2
66622;PMS5003;53493;50.888;20.650;2022-07-04T00:21:16;4;4;2
66622;PMS5003;53493;50.888;20.650;2022-07-04T00:28:13;4;4;2
66622;PMS5003;53493;50.888;20.650;2022-07-04T00:35:04;4;4;3
66622;PMS5003;53493;50.888;20.650;2022-07-04T00:42:06;4;4;3
66622;PMS5003;53493;50.888;20.650;2022-07-04T00:49:20;4;4;3
66622;PMS5003;53493;50.888;20.650;2022-07-04T00:56:21;4;4;3
66622;PMS5003;53493;50.888;20.650;2022-07-04T01:00:18;4;4;3
66622;PMS5003;53493;50.888;20.650;2022-07-04T01:07:03;5;5;3
66622;PMS5003;53493;50.888;20.650;2022-07-04T01:14:05;5;5;3
66622;PMS5003;53493;50.888;20.650;2022-07-04T01:21:22;5;5;3
66622;PMS5003;53493;50.888;20.650;2022-07-04T01:28:20;5;5;3
66622;PMS5003;53493;50.888;20.650;2022-07-04T01:35:10;4;3;2
66622;PMS5003;53493;50.888;20.650;2022-07-04T01:42:15;4;3;2
66622;PMS5003;53493;50.888;20.650;2022-07-04T01:49:03;4;3;2
66622;PMS5003;53493;50.888;20.650;2022-07-04T01:56:16;4;3;2
66622;PMS5003;53493;50.888;20.650;2022-07-04T02:07:15;6;4;2
66622;PMS5003;53493;50.888;20.650;2022-07-04T02:14:16;6;4;2
66622;PMS5003;53493;50.888;20.650;2022-07-04T02:21:04;6;4;2
66622;PMS5003;53493;50.888;20.650;2022-07-04T02:28:19;6;4;2
66622;PMS5003;53493;50.888;20.650;2022-07-04T02:35:18;6;6;3
66622;PMS5003;53493;50.888;20.650;2022-07-04T02:42:18;6;6;3
66622;PMS5003;53493;50.888;20.650;2022-07-04T02:49:05;6;6;3
66622;PMS5003;53493;50.888;20.650;2022-07-04T02:56:07;6;6;3
66622;PMS5003;53493;50.888;20.650;2022-07-04T03:00:21;6;6;3
66622;PMS5003;53493;50.888;20.650;2022-07-04T03:35:17;6;5;3
66622;PMS5003;53493;50.888;20.650;2022-07-04T03:42:20;6;5;3
66622;PMS5003;53493;50.888;20.650;2022-07-04T03:49:20;6;5;3
66622;PMS5003;53493;50.888;20.650;2022-07-04T03:56:19;6;5;3
66622;PMS5003;53493;50.888;20.650;2022-07-04T04:00:18;6;5;3
66622;PMS5003;53493;50.888;20.650;2022-07-04T04:07:17;9;6;3
66622;PMS5003;53493;50.888;20.650;2022-07-04T04:14:14;9;6;3
66622;PMS5003;53493;50.888;20.650;2022-07-04T04:21:04;9;6;3
66622;PMS5003;53493;50.888;20.650;2022-07-04T04:28:17;9;6;3
66622;PMS5003;53493;50.888;20.650;2022-07-04T04:35:20;6;6;3
66622;PMS5003;53493;50.888;20.650;2022-07-04T04:42:06;6;6;3
66622;PMS5003;53493;50.888;20.650;2022-07-04T04:49:17;6;6;3
66622;PMS5003;53493;50.888;20.650;2022-07-04T04:56:05;6;6;3
66622;PMS5003;53493;50.888;20.650;2022-07-04T05:00:24;6;6;3
66622;PMS5003;53493;50.888;20.650;2022-07-04T05:07:05;5;5;2
66622;PMS5003;53493;50.888;20.650;2022-07-04T05:14:03;5;5;2
66622;PMS5003;53493;50.888;20.650;2022-07-04T05:21:16;5;5;2
66622;PMS5003;53493;50.888;20.650;2022-07-04T05:28:19;5;5;2
66622;PMS5003;53493;50.888;20.650;2022-07-04T09:14:16;14;14;7
66622;PMS5003;53493;50.888;20.650;2022-07-04T09:21:06;14;14;7
66622;PMS5003;53493;50.888;20.650;2022-07-04T09:28:28;14;14;7
66622;PMS5003;53493;50.888;20.650;2022-07-04T09:42:05;5;5;3
66622;PMS5003;53493;50.888;20.650;2022-07-04T09:49:04;5;5;3
66622;PMS5003;53493;50.888;20.650;2022-07-04T09:56:06;5;5;3
66622;PMS5003;53493;50.888;20.650;2022-07-04T10:14:22;8;8;5
66622;PMS5003;53493;50.888;20.650;2022-07-04T10:21:04;8;8;5
66622;PMS5003;53493;50.888;20.650;2022-07-04T10:28:09;8;8;5
66622;PMS5003;53493;50.888;20.650;2022-07-04T10:42:03;9;7;4
66622;PMS5003;53493;50.888;20.650;2022-07-04T10:49:23;9;7;4
66622;PMS5003;53493;50.888;20.650;2022-07-04T11:00:13;9;7;4
66622;PMS5003;53493;50.888;20.650;2022-07-04T11:14:56;6;6;4
66622;PMS5003;53493;50.888;20.650;2022-07-04T11:21:01;6;6;4
66622;PMS5003;53493;50.888;20.650;2022-07-04T11:49:22;7;7;6
66622;PMS5003;53493;50.888;20.650;2022-07-04T11:56:18;7;7;6
66622;PMS5003;53493;50.888;20.650;2022-07-04T12:00:03;7;7;6
66622;PMS5003;53493;50.888;20.650;2022-07-04T13:42:07;6;5;4
66622;PMS5003;53493;50.888;20.650;2022-07-04T13:49:05;6;5;4
66622;PMS5003;53493;50.888;20.650;2022-07-04T14:42:18;7;6;4
66622;PMS5003;53493;50.888;20.650;2022-07-04T14:49:18;7;6;4
66622;PMS5003;53493;50.888;20.650;2022-07-04T15:14:04;6;6;4
66622;PMS5003;53493;50.888;20.650;2022-07-04T15:42:05;9;9;4
66622;PMS5003;53493;50.888;20.650;2022-07-04T15:49:06;9;9;4
66622;PMS5003;53493;50.888;20.650;2022-07-04T17:14:15;7;6;4
66622;PMS5003;53493;50.888;20.650;2022-07-04T17:21:06;7;6;4
66622;PMS5003;53493;50.888;20.650;2022-07-04T17:42:17;9;9;6
66622;PMS5003;53493;50.888;20.650;2022-07-04T17:49:04;9;9;6
66622;PMS5003;53493;50.888;20.650;2022-07-04T17:56:19;9;9;6
66622;PMS5003;53493;50.888;20.650;2022-07-04T18:00:18;9;9;6
66622;PMS5003;53493;50.888;20.650;2022-07-04T18:14:02;6;5;3
66622;PMS5003;53493;50.888;20.650;2022-07-04T23:35:16;10;10;7
